RKTU/CHN METAR and TAF weather

Enter ICAO airport designator
Station Type Date Time Source
RKTU METAR 2021/04/17 02:00 UTC NOAA

RKTU 170200Z 26003KT 9999 FEW040 BKN200 13/02 Q1016


Station Type Date Time Source
RKTU Decoded METAR 2021/04/17 02:00 UTC NOAA

Chongju Ab, Korea, South (RKTU) 36-42N 127-30E 66M
Apr 16, 2021 - 10:00 PM EDT / 2021.04.17 0200 UTC
Wind: from the W (260 degrees) at 3 MPH (3 KT):0
Visibility: greater than 7 mile(s):0
Sky conditions: mostly cloudy
Temperature: 55 F (13 C)
Dew Point: 35 F (2 C)
Relative Humidity: 47%
Pressure (altimeter): 30.00 in. Hg (1016 hPa)
ob: RKTU 170200Z 26003KT 9999 FEW040 BKN200 13/02 Q1016
cycle: 2

Station Type Date Time Source
RKTU TAF 2021/04/16 18:07 UTC NOAA

TAF RKTU 161700Z 1618/1724 27006KT 9999 SCT030 SCT200 TN03/1621Z TX16/1706Z
TEMPO 1703/1709 27012KT -SHRA BKN030
BECMG 1709/1710 27008KT
BECMG 1711/1712 27006KT

Example: see airport list